Latest Coastal Weather Observations for Thevenard Island

IDW60701

Issued at 9:43 pm WST Monday 4 May 2026 (issued every 10 minutes, with the page automatically refreshed every 10 minutes)

About coastal observations | Map of coastal stations | Coastal observations for WA | Marine services | Other Formats
Station Details ID: 005084 Name: THEVENARD ISLAND Lat: -21.46 Lon: 115.02 Height: 5.0 m
Data from the previous 72 hours. | See also: Recent months at Thevenard Island
Date/Time
WST
Wind Sea
Height
m
Swell Vis
km
Cloud Weather Temp
°C
Press
MSL
hPa
Rain since
9am
mm
Dir  Spd
kts
Gust
kts
Height
m
Period
s
Dir
04/09:30pm N 6 7 - - - - - - - 25.3 1016.2 0.0
04/09:00pm N 7 8 - - - - - - - 25.7 1016.4 0.0
04/08:30pm N 7 8 - - - - - - - 25.7 1016.3 0.0
04/08:00pm N 6 7 - - - - - - - 25.6 1016.4 0.0
04/07:30pm N 6 7 - - - - - - - 26.1 1016.1 0.0
04/07:00pm NNW 7 9 - - - - - - - 25.8 1015.8 0.0
04/06:30pm NNW 8 10 - - - - - - - 26.2 1015.4 0.0
04/06:00pm N 9 11 - - - - - - - 26.5 1015.2 0.0
04/05:30pm N 8 11 - - - - - - - 26.9 1015.0 0.0
04/05:00pm N 10 11 - - - - - - - 28.1 1014.9 0.0
04/04:30pm N 10 11 - - - - - - - 28.5 1014.9 0.0
04/04:00pm N 10 12 - - - - - - - 28.9 1014.9 0.0
04/03:30pm NNE 9 11 - - - - - - - 29.5 1014.8 0.0
04/03:00pm NNE 10 11 - - - - - - - 29.5 1014.9 0.0
04/02:30pm NNE 10 13 - - - - - - - 29.0 1015.1 0.0
04/02:00pm NE 11 14 - - - - - - - 29.2 1015.4 0.0
04/01:30pm NE 12 15 - - - - - - - 29.5 1015.5 0.0
04/01:00pm NE 12 17 - - - - - - - 28.6 1015.9 0.0
04/12:30pm ENE 13 18 - - - - - - - 29.4 1016.4 0.0
04/12:00pm ENE 12 16 - - - - - - - 29.1 1017.1 0.0
04/11:30am ENE 13 18 - - - - - - - 28.4 1017.6 0.0
04/11:00am ENE 13 19 - - - - - - - 28.4 1017.9 0.0
04/10:30am ENE 15 20 - - - - - - - 27.7 1018.3 0.0
04/10:00am E 15 20 - - - - - - - 27.4 1018.3 0.0
04/09:30am E 17 21 - - - - - - - 26.9 1018.3 0.0
04/09:00am ENE 17 23 - - - - - - - 26.8 1018.1 0.0
04/08:30am ENE 17 23 - - - - - - - 26.8 1017.7 0.0
04/08:00am E 16 22 - - - - - - - 26.7 1017.3 0.0
04/07:30am E 15 20 - - - - - - - 26.0 1017.3 0.0
04/07:00am E 14 19 - - - - - - - 25.7 1017.1 0.0
04/06:30am ESE 15 18 - - - - - - - 25.5 1016.6 0.0
04/06:00am ESE 13 16 - - - - - - - 25.3 1016.5 0.0
04/05:30am SE 14 17 - - - - - - - 25.2 1016.5 0.0
04/05:00am SE 15 19 - - - - - - - 25.2 1016.1 0.0
04/04:30am SSE 14 16 - - - - - - - 25.0 1015.8 0.0
04/04:00am SSE 15 17 - - - - - - - 24.9 1016.0 0.0
04/03:30am SSE 12 14 - - - - - - - 24.9 1016.0 0.0
04/03:00am SSE 10 13 - - - - - - - 24.8 1016.0 0.0
04/02:30am SSW 6 7 - - - - - - - 25.2 1015.9 0.0
04/02:00am N 5 6 - - - - - - - 24.6 1015.7 0.0
04/01:30am N 4 5 - - - - - - - 24.6 1015.7 0.0
04/01:00am N 3 4 - - - - - - - 24.0 1015.8 0.0
04/12:30am N 4 5 - - - - - - - 24.1 1015.9 0.0
04/12:00am N 4 5 - - - - - - - 24.7 1016.0 0.0
 
Date/Time
WST
Wind Sea
Height
m
Swell Vis
km
Cloud Weather Temp
°C
Press
MSL
hPa
Rain since
9am
mm
Dir  Spd
kts
Gust
kts
Height
m
Period
s
Dir
03/11:30pm N 6 6 - - - - - - - 25.3 1016.0 0.0
03/11:00pm N 6 7 - - - - - - - 25.5 1016.0 0.0
03/10:30pm N 7 8 - - - - - - - 25.9 1015.9 0.0
03/10:00pm N 8 9 - - - - - - - 26.2 1015.9 0.0
03/09:30pm N 8 10 - - - - - - - 26.3 1015.8 0.0
03/09:00pm N 9 11 - - - - - - - 26.5 1015.7 0.0
03/08:30pm N 10 13 - - - - - - - 26.5 1015.5 0.0
03/08:00pm N 11 13 - - - - - - - 26.7 1015.2 0.0
03/07:30pm N 10 12 - - - - - - - 26.6 1014.8 0.0
03/07:00pm NNE 10 12 - - - - - - - 26.6 1014.6 0.0
03/06:30pm NNE 12 14 - - - - - - - 26.7 1014.3 0.0
03/06:00pm NNE 11 13 - - - - - - - 26.9 1014.1 0.0
03/05:30pm NNE 11 14 - - - - - - - 27.3 1013.8 0.0
03/05:00pm NNE 10 13 - - - - - - - 27.8 1013.6 0.0
03/04:30pm NNE 13 16 - - - - - - - 28.2 1013.4 0.0
03/04:00pm NNE 14 16 - - - - - - - 28.4 1013.4 0.0
03/03:30pm NNE 13 17 - - - - - - - 28.9 1013.2 0.0
03/03:00pm NNE 13 18 - - - - - - - 29.3 1013.3 0.0
03/02:30pm NNE 15 18 - - - - - - - 29.2 1013.4 0.0
03/02:00pm NE 15 18 - - - - - - - 29.7 1013.6 0.0
03/01:30pm NE 14 17 - - - - - - - 29.8 1013.9 0.0
03/01:00pm NE 14 18 - - - - - - - 29.8 1014.2 0.0
03/12:30pm NE 15 19 - - - - - - - 29.4 1014.4 0.0
03/12:00pm NE 15 18 - - - - - - - 29.1 1014.7 0.0
03/11:30am ENE 15 21 - - - - - - - 28.6 1015.1 0.0
03/11:00am ENE 15 21 - - - - - - - 28.1 1015.7 0.0
03/10:30am ENE 16 21 - - - - - - - 28.1 1015.8 0.0
03/10:00am ENE 16 21 - - - - - - - 27.4 1016.0 0.0
03/09:30am ENE 18 25 - - - - - - - 27.5 1015.7 0.0
03/09:00am E 17 23 - - - - - - - 25.9 1015.4 0.0
03/08:30am E 12 17 - - - - - - - 25.6 1015.3 0.0
03/08:00am E 13 17 - - - - - - - 25.6 1014.9 0.0
03/07:30am E 10 12 - - - - - - - 25.8 1014.4 0.0
03/07:00am ENE 5 6 - - - - - - - 25.1 1014.1 0.0
03/06:30am ENE 6 7 - - - - - - - 25.0 1013.7 0.0
03/06:00am ENE 5 7 - - - - - - - 24.9 1013.4 0.0
03/05:30am ENE 6 7 - - - - - - - 24.8 1013.2 0.0
03/05:00am ENE 5 7 - - - - - - - 24.7 1013.0 0.0
03/04:30am SSE 6 6 - - - - - - - 24.7 1012.9 0.0
03/04:00am S 6 7 - - - - - - - 24.6 1012.9 0.0
03/03:30am SSW 5 6 - - - - - - - 24.6 1012.8 0.0
03/03:00am SSW 5 6 - - - - - - - 24.4 1012.7 0.0
03/02:30am SSW 5 6 - - - - - - - 24.0 1012.6 0.0
03/02:00am SW 4 5 - - - - - - - 23.6 1012.6 0.0
03/01:30am SW 4 5 - - - - - - - 23.6 1012.7 0.0
03/01:00am SW 4 4 - - - - - - - 23.7 1012.8 0.0
03/12:30am SW 3 4 - - - - - - - 24.0 1012.9 0.0
03/12:00am SW 4 5 - - - - - - - 24.7 1013.0 0.0
 
Date/Time
WST
Wind Sea
Height
m
Swell Vis
km
Cloud Weather Temp
°C
Press
MSL
hPa
Rain since
9am
mm
Dir  Spd
kts
Gust
kts
Height
m
Period
s
Dir
02/11:30pm SW 5 6 - - - - - - - 24.4 1013.1 0.0
02/11:00pm SW 5 6 - - - - - - - 24.4 1013.2 0.0
02/10:30pm SW 4 5 - - - - - - - 24.3 1013.2 0.0
02/10:00pm SW 5 6 - - - - - - - 25.0 1013.1 0.0
02/09:30pm WSW 6 7 - - - - - - - 24.6 1013.3 0.0
02/09:00pm NW 5 6 - - - - - - - 24.9 1013.2 0.0
02/08:30pm NNW 7 8 - - - - - - - 25.9 1012.8 0.0
02/08:00pm NNW 8 10 - - - - - - - 26.6 1012.5 0.0
02/07:30pm NNW 8 10 - - - - - - - 26.6 1012.2 0.0
02/07:00pm N 9 11 - - - - - - - 26.9 1011.9 0.0
02/06:30pm N 8 10 - - - - - - - 27.1 1011.6 0.0
02/06:00pm N 9 11 - - - - - - - 27.4 1011.3 0.0
02/05:30pm N 11 14 - - - - - - - 27.9 1011.0 0.0
02/05:00pm N 11 13 - - - - - - - 28.4 1010.8 0.0
02/04:30pm NNE 9 11 - - - - - - - 29.2 1010.7 0.0
02/04:00pm NNE 10 13 - - - - - - - 29.3 1010.5 0.0
02/03:30pm NNE 9 11 - - - - - - - 30.0 1010.7 0.0
02/03:00pm NNE 10 12 - - - - - - - 30.3 1010.9 0.0
02/02:30pm NNE 10 12 - - - - - - - 30.1 1011.1 0.0
02/02:00pm NNE 11 14 - - - - - - - 30.0 1011.2 0.0
02/01:30pm NE 11 14 - - - - - - - 30.4 1011.5 0.0
02/01:00pm NE 9 11 - - - - - - - 30.8 1011.8 0.0
02/12:30pm E 7 9 - - - - - - - 30.8 1012.1 0.0
02/12:00pm E 8 11 - - - - - - - 30.4 1012.5 0.0
02/11:30am ESE 9 12 - - - - - - - 30.1 1012.8 0.0
02/11:00am SE 11 14 - - - - - - - 29.6 1013.3 0.0
02/10:30am SE 13 17 - - - - - - - 28.6 1013.4 0.0
02/10:00am SE 16 20 - - - - - - - 27.5 1013.7 0.0
02/09:30am SE 18 21 - - - - - - - 26.7 1013.7 0.0
02/09:00am SSE 19 23 - - - - - - - 26.1 1013.6 0.0
02/08:30am SSE 19 23 - - - - - - - 25.1 1013.5 0.0
02/08:00am SSE 18 22 - - - - - - - 25.0 1013.3 0.0
02/07:30am SSE 18 22 - - - - - - - 24.7 1012.9 0.0
02/07:00am SSE 19 23 - - - - - - - 24.6 1012.5 0.0
02/06:30am SSE 20 24 - - - - - - - 24.5 1012.1 0.0
02/06:00am SSE 20 25 - - - - - - - 24.6 1011.9 0.0
02/05:30am S 20 24 - - - - - - - 24.7 1011.7 0.0
02/05:00am SSE 19 23 - - - - - - - 24.7 1011.3 0.0
02/04:30am S 19 22 - - - - - - - 24.8 1011.1 0.0
02/04:00am S 19 23 - - - - - - - 24.7 1011.2 0.0
02/03:30am S 19 23 - - - - - - - 24.9 1011.6 0.0
02/03:00am S 20 25 - - - - - - - 25.0 1011.6 0.0
02/02:30am S 20 24 - - - - - - - 25.1 1011.7 0.0
02/02:00am S 21 26 - - - - - - - 25.3 1012.2 0.0
02/01:30am S 22 25 - - - - - - - 25.5 1012.2 0.0
02/01:00am S 21 25 - - - - - - - 25.6 1012.4 0.0
02/12:30am S 21 26 - - - - - - - 25.8 1012.6 0.0
02/12:00am S 23 26 - - - - - - - 26.0 1012.5 0.0
 
Date/Time
WST
Wind Sea
Height
m
Swell Vis
km
Cloud Weather Temp
°C
Press
MSL
hPa
Rain since
9am
mm
Dir  Spd
kts
Gust
kts
Height
m
Period
s
Dir
01/11:30pm S 21 25 - - - - - - - 26.2 1012.9 0.0
01/11:00pm S 20 26 - - - - - - - 26.5 1012.8 0.0
01/10:30pm SSW 20 25 - - - - - - - 26.5 1013.0 0.0
01/10:00pm SSW 21 26 - - - - - - - 26.8 1013.1 0.0

Other formats

Comma delimited format used in spreadsheet applications
http://www.bom.gov.au/fwo/IDW60701/IDW60701.94303.axf

JavaScript Object Notation format (JSON) in row-major order
http://www.bom.gov.au/fwo/IDW60701/IDW60701.94303.json

Data quality

Most of these data are generated automatically and are frequently updated. Quality checks on data are not normally performed. It is possible for incorrect values to appear. Refer to information at About Latest Weather Observations and please check the disclaimer before using these data.